Time;durP1;ratioP1;P1;durP2;ratioP2;P2;SDS_P1;SDS_P2;PMS_P1;PMS_P2;Temp;Humidity;BMP_temperature;BMP_pressure;BME280_temperature;BME280_humidity;BME280_pressure;Samples;Min_cycle;Max_cycle;Signal;HPM_P1;HPM_P2
2022/06/04 00:00:19;;;;;;;31.60;22.10;;;;;;;;;;727604;189;1123240;-70
2022/06/04 00:02:44;;;;;;;30.00;19.73;;;;;;;;;;728023;190;918761;-70
2022/06/04 00:05:10;;;;;;;27.20;18.40;;;;;;;;;;725236;192;919071;-70
2022/06/04 00:07:36;;;;;;;20.90;16.73;;;;;;;;;;726441;190;918786;-70
2022/06/04 00:17:37;;;;;;;16.70;13.73;;;;;;;;;;723819;190;919487;-70
2022/06/04 00:20:03;;;;;;;19.70;15.17;;;;;;;;;;725824;189;917849;-70
2022/06/04 00:22:29;;;;;;;22.67;17.37;;;;;;;;;;731210;191;918768;-71
2022/06/04 00:24:55;;;;;;;22.40;17.00;;;;;;;;;;719220;189;919184;-71
2022/06/04 00:27:21;;;;;;;32.90;19.43;;;;;;;;;;725412;190;919959;-70
2022/06/04 00:29:47;;;;;;;27.13;20.37;;;;;;;;;;729514;189;918427;-69
2022/06/04 00:32:13;;;;;;;35.63;23.30;;;;;;;;;;731128;189;919212;-70
2022/06/04 00:34:39;;;;;;;38.40;24.93;;;;;;;;;;726469;190;918609;-70
2022/06/04 00:37:05;;;;;;;29.83;21.93;;;;;;;;;;724689;191;917813;-70
2022/06/04 00:39:31;;;;;;;25.57;19.97;;;;;;;;;;734379;189;1021164;-70
2022/06/04 00:41:58;;;;;;;26.73;18.70;;;;;;;;;;727497;191;1211550;-70
2022/06/04 00:44:44;;;;;;;27.80;18.20;;;;;;;;;;726802;189;918769;-70
2022/06/04 00:47:11;;;;;;;25.25;15.20;;;;;;;;;;730139;188;919046;-70
2022/06/04 00:49:37;;;;;;;18.37;13.93;;;;;;;;;;733061;190;1016122;-68
2022/06/04 00:52:03;;;;;;;19.30;13.73;;;;;;;;;;733388;190;916652;-69
2022/06/04 00:54:29;;;;;;;20.23;13.47;;;;;;;;;;736101;190;915820;-69
2022/06/04 00:56:59;;;;;;;15.87;13.37;;;;;;;;;;729715;189;916014;-69
2022/06/04 00:59:36;;;;;;;13.00;11.50;;;;;;;;;;731776;190;914412;-70
2022/06/04 01:02:17;;;;;;;13.70;12.13;;;;;;;;;;733748;190;915047;-69
2022/06/04 01:05:02;;;;;;;16.83;12.43;;;;;;;;;;732275;192;913895;-70
2022/06/04 01:07:47;;;;;;;19.07;13.40;;;;;;;;;;738502;190;918923;-70
2022/06/04 01:10:12;;;;;;;13.97;12.57;;;;;;;;;;729648;191;918289;-71
2022/06/04 01:12:53;;;;;;;14.13;12.67;;;;;;;;;;729667;189;914880;-70
2022/06/04 01:15:35;;;;;;;16.10;12.40;;;;;;;;;;720368;191;919010;-69
2022/06/04 01:18:08;;;;;;;15.20;12.07;;;;;;;;;;731643;190;920024;-67
2022/06/04 01:20:37;;;;;;;18.10;13.17;;;;;;;;;;726607;189;919096;-71
2022/06/04 01:23:21;;;;;;;13.50;12.10;;;;;;;;;;723946;189;918742;-70
2022/06/04 01:25:53;;;;;;;16.67;13.77;;;;;;;;;;723382;190;940839;-69
2022/06/04 01:28:19;;;;;;;16.20;13.60;;;;;;;;;;720451;192;917843;-70
2022/06/04 01:30:46;;;;;;;14.30;12.80;;;;;;;;;;729257;191;918746;-69
2022/06/04 01:33:13;;;;;;;15.80;12.90;;;;;;;;;;724959;191;917921;-71
2022/06/04 01:35:40;;;;;;;14.27;12.77;;;;;;;;;;722205;191;919077;-70
2022/06/04 01:38:08;;;;;;;18.37;13.97;;;;;;;;;;732044;191;917366;-70
2022/06/04 01:41:07;;;;;;;17.80;13.97;;;;;;;;;;735327;191;916593;-71
2022/06/04 01:43:16;;;;;;;14.93;13.40;;;;;;;;;;724991;191;918774;-70
2022/06/04 01:45:42;;;;;;;16.57;14.33;;;;;;;;;;723090;191;919357;-70
2022/06/04 01:48:09;;;;;;;15.60;13.43;;;;;;;;;;724409;191;919769;-70
2022/06/04 01:50:34;;;;;;;17.80;14.00;;;;;;;;;;730768;191;922951;-70
2022/06/04 01:53:00;;;;;;;16.50;13.67;;;;;;;;;;726026;191;919005;-69
2022/06/04 01:55:26;;;;;;;15.47;13.90;;;;;;;;;;726422;190;918196;-69
2022/06/04 01:57:55;;;;;;;19.20;12.17;;;;;;;;;;731618;190;912843;-69
2022/06/04 02:00:24;;;;;;;21.10;13.63;;;;;;;;;;730432;188;921086;-69
2022/06/04 02:02:50;;;;;;;17.93;13.23;;;;;;;;;;732435;188;919242;-70
2022/06/04 02:05:16;;;;;;;16.87;14.27;;;;;;;;;;724643;190;915364;-69
2022/06/04 02:07:42;;;;;;;17.10;14.40;;;;;;;;;;726675;192;920846;-71
2022/06/04 02:10:08;;;;;;;19.50;14.25;;;;;;;;;;726856;189;916388;-71
2022/06/04 02:12:34;;;;;;;20.43;15.80;;;;;;;;;;734572;190;915397;-61
2022/06/04 02:15:00;;;;;;;36.70;18.63;;;;;;;;;;735777;186;919307;-60
2022/06/04 02:17:25;;;;;;;26.23;19.73;;;;;;;;;;731674;190;919490;-61
2022/06/04 02:19:51;;;;;;;26.90;19.10;;;;;;;;;;722909;189;918868;-60
2022/06/04 02:22:17;;;;;;;35.07;21.87;;;;;;;;;;736636;190;919421;-61
2022/06/04 02:24:43;;;;;;;25.27;20.20;;;;;;;;;;729807;189;909615;-62
2022/06/04 02:27:09;;;;;;;26.33;20.07;;;;;;;;;;729385;189;918485;-62
2022/06/04 02:29:35;;;;;;;29.27;20.20;;;;;;;;;;729613;190;919119;-63
2022/06/04 02:32:00;;;;;;;31.17;21.53;;;;;;;;;;726819;189;919068;-65
2022/06/04 02:34:28;;;;;;;27.58;19.02;;;;;;;;;;728128;190;918407;-65
2022/06/04 02:36:57;;;;;;;26.97;20.40;;;;;;;;;;726654;191;918133;-63
2022/06/04 02:39:25;;;;;;;26.00;20.30;;;;;;;;;;737461;191;918217;-65
2022/06/04 02:41:53;;;;;;;26.07;21.10;;;;;;;;;;730081;191;919271;-65
2022/06/04 02:44:19;;;;;;;29.87;19.57;;;;;;;;;;726560;191;917397;-64
2022/06/04 02:46:47;;;;;;;25.10;20.13;;;;;;;;;;730445;191;917891;-64
2022/06/04 02:49:15;;;;;;;34.47;21.52;;;;;;;;;;723924;189;1022150;-64
2022/06/04 02:51:41;;;;;;;30.33;21.27;;;;;;;;;;728926;189;919728;-64
2022/06/04 02:54:06;;;;;;;25.50;20.90;;;;;;;;;;725527;191;918614;-63
2022/06/04 02:56:32;;;;;;;34.60;22.73;;;;;;;;;;731115;191;918876;-63
2022/06/04 02:58:58;;;;;;;25.73;21.60;;;;;;;;;;726595;191;919497;-63
2022/06/04 03:01:24;;;;;;;31.15;23.73;;;;;;;;;;727092;191;919656;-62
2022/06/04 03:03:50;;;;;;;32.30;23.00;;;;;;;;;;734989;191;918771;-62
2022/06/04 03:06:19;;;;;;;30.50;23.10;;;;;;;;;;730478;186;918479;-62
2022/06/04 03:08:45;;;;;;;32.67;24.20;;;;;;;;;;726212;191;919123;-66
2022/06/04 03:11:11;;;;;;;31.47;23.07;;;;;;;;;;729922;190;919693;-62
2022/06/04 03:13:37;;;;;;;32.17;22.80;;;;;;;;;;738773;190;917793;-62
2022/06/04 03:16:03;;;;;;;29.10;24.33;;;;;;;;;;727364;190;918776;-62
2022/06/04 03:18:29;;;;;;;30.40;23.93;;;;;;;;;;727033;189;919605;-63
2022/06/04 03:20:55;;;;;;;29.23;23.67;;;;;;;;;;732875;189;919118;-64
2022/06/04 03:23:21;;;;;;;30.30;22.87;;;;;;;;;;724057;190;919806;-64
2022/06/04 03:25:47;;;;;;;33.60;24.37;;;;;;;;;;727399;189;919137;-63
2022/06/04 03:28:13;;;;;;;35.50;26.40;;;;;;;;;;732540;190;918907;-63
2022/06/04 03:30:39;;;;;;;30.43;24.77;;;;;;;;;;729027;190;918902;-62
2022/06/04 03:33:05;;;;;;;34.13;26.93;;;;;;;;;;724568;191;919430;-63
2022/06/04 03:35:31;;;;;;;36.43;27.83;;;;;;;;;;732322;187;919006;-63
2022/06/04 03:37:57;;;;;;;36.83;26.27;;;;;;;;;;741789;186;920084;-64
2022/06/04 03:40:23;;;;;;;33.93;24.20;;;;;;;;;;733461;188;919299;-63
2022/06/04 03:42:48;;;;;;;35.30;25.60;;;;;;;;;;721788;190;921194;-63
2022/06/04 03:45:14;;;;;;;34.90;26.07;;;;;;;;;;732220;190;713747;-62
2022/06/04 03:47:40;;;;;;;31.07;23.77;;;;;;;;;;730544;190;922353;-62
2022/06/04 03:50:07;;;;;;;30.60;25.57;;;;;;;;;;729021;187;921538;-63
2022/06/04 03:52:33;;;;;;;31.67;26.57;;;;;;;;;;731418;191;917945;-63
2022/06/04 03:54:59;;;;;;;32.13;25.50;;;;;;;;;;730702;191;919939;-64
2022/06/04 03:59:56;;;;;;;34.03;26.43;;;;;;;;;;734469;187;915781;-64
2022/06/04 04:02:22;;;;;;;30.40;25.30;;;;;;;;;;736999;189;915502;-64
2022/06/04 04:04:48;;;;;;;36.07;25.40;;;;;;;;;;725743;189;919871;-65
2022/06/04 04:07:14;;;;;;;38.38;27.30;;;;;;;;;;727228;191;915777;-66
2022/06/04 04:09:40;;;;;;;35.80;29.10;;;;;;;;;;730445;190;919255;-65
2022/06/04 04:12:06;;;;;;;32.80;27.43;;;;;;;;;;728241;191;635359;-66
2022/06/04 04:14:32;;;;;;;38.10;27.87;;;;;;;;;;731924;191;917447;-65
2022/06/04 04:16:58;;;;;;;39.33;29.10;;;;;;;;;;727831;189;918345;-65
2022/06/04 04:19:26;;;;;;;37.60;28.80;;;;;;;;;;725135;189;919291;-65
2022/06/04 04:21:49;;;;;;;38.20;29.60;;;;;;;;;;732493;187;919654;-66
2022/06/04 04:24:15;;;;;;;36.57;28.00;;;;;;;;;;729616;190;918834;-65
2022/06/04 04:26:41;;;;;;;36.97;30.40;;;;;;;;;;732276;190;920294;-65
2022/06/04 04:29:07;;;;;;;42.23;31.87;;;;;;;;;;728152;190;918186;-64
2022/06/04 04:31:33;;;;;;;41.13;32.70;;;;;;;;;;728818;187;940538;-67
2022/06/04 04:33:59;;;;;;;43.83;33.97;;;;;;;;;;731696;190;918441;-64
2022/06/04 04:36:27;;;;;;;42.13;31.77;;;;;;;;;;731148;189;919160;-64
2022/06/04 04:38:52;;;;;;;43.13;32.50;;;;;;;;;;728556;190;919512;-65
2022/06/04 04:41:16;;;;;;;43.40;33.57;;;;;;;;;;732132;192;919571;-64
2022/06/04 04:43:42;;;;;;;51.07;33.57;;;;;;;;;;732680;190;917025;-65
2022/06/04 04:46:08;;;;;;;52.38;35.95;;;;;;;;;;728419;189;1018861;-65
2022/06/04 04:48:34;;;;;;;43.27;33.27;;;;;;;;;;728337;189;956321;-65
2022/06/04 04:50:59;;;;;;;43.00;33.10;;;;;;;;;;731242;190;916682;-65
2022/06/04 04:53:26;;;;;;;43.03;32.47;;;;;;;;;;725867;189;1187672;-65
2022/06/04 04:55:51;;;;;;;44.00;32.30;;;;;;;;;;728379;188;918002;-65
2022/06/04 04:58:17;;;;;;;46.33;35.30;;;;;;;;;;736919;190;914777;-65
2022/06/04 05:00:43;;;;;;;42.80;33.80;;;;;;;;;;734066;190;914744;-66
2022/06/04 05:03:09;;;;;;;45.00;33.37;;;;;;;;;;728397;191;911767;-65
2022/06/04 05:05:35;;;;;;;43.35;33.40;;;;;;;;;;733682;189;911916;-65
2022/06/04 05:08:01;;;;;;;45.53;31.58;;;;;;;;;;726952;189;918522;-65
2022/06/04 05:10:27;;;;;;;50.13;37.90;;;;;;;;;;727762;189;919439;-66
2022/06/04 05:12:53;;;;;;;46.58;35.10;;;;;;;;;;726113;189;918966;-66
2022/06/04 05:15:18;;;;;;;43.13;33.27;;;;;;;;;;730931;191;923279;-68
2022/06/04 05:17:44;;;;;;;50.90;35.40;;;;;;;;;;730756;191;919215;-66
2022/06/04 05:20:11;;;;;;;52.53;33.87;;;;;;;;;;734023;191;919128;-66
2022/06/04 05:22:36;;;;;;;44.40;33.13;;;;;;;;;;732961;189;919536;-66
2022/06/04 05:25:03;;;;;;;38.00;30.87;;;;;;;;;;729365;187;919146;-66
2022/06/04 05:27:29;;;;;;;40.38;29.17;;;;;;;;;;725434;191;1123797;-66
2022/06/04 05:29:54;;;;;;;40.17;31.20;;;;;;;;;;731472;189;963157;-67
2022/06/04 05:32:20;;;;;;;41.00;30.00;;;;;;;;;;730349;190;918779;-67
2022/06/04 05:34:46;;;;;;;31.23;26.50;;;;;;;;;;734525;187;919897;-66
2022/06/04 05:37:12;;;;;;;28.80;25.23;;;;;;;;;;733050;190;918740;-66
2022/06/04 05:39:37;;;;;;;28.83;25.50;;;;;;;;;;731862;188;918941;-66
2022/06/04 05:42:04;;;;;;;26.23;21.67;;;;;;;;;;728232;190;918764;-66
2022/06/04 05:44:30;;;;;;;25.87;22.00;;;;;;;;;;729929;190;921688;-66
2022/06/04 05:46:55;;;;;;;26.52;21.70;;;;;;;;;;736965;190;918470;-66
2022/06/04 05:49:21;;;;;;;25.77;21.90;;;;;;;;;;734599;189;919430;-65
2022/06/04 05:51:47;;;;;;;25.85;22.20;;;;;;;;;;731322;189;919215;-65
2022/06/04 05:54:13;;;;;;;23.57;19.43;;;;;;;;;;732369;190;919194;-65
2022/06/04 05:56:39;;;;;;;25.03;20.10;;;;;;;;;;725163;191;938934;-66
2022/06/04 05:59:05;;;;;;;29.87;22.25;;;;;;;;;;726025;190;923693;-66
2022/06/04 06:01:31;;;;;;;24.93;19.90;;;;;;;;;;734342;190;918328;-65
2022/06/04 06:03:57;;;;;;;30.30;23.27;;;;;;;;;;732233;190;918935;-66
2022/06/04 06:06:23;;;;;;;34.07;24.07;;;;;;;;;;726910;190;918745;-65
2022/06/04 06:08:49;;;;;;;31.30;23.70;;;;;;;;;;726113;190;914162;-66
2022/06/04 06:11:15;;;;;;;25.37;22.37;;;;;;;;;;730638;189;944396;-66
2022/06/04 06:13:41;;;;;;;27.57;22.47;;;;;;;;;;727089;188;920477;-66
2022/06/04 06:16:07;;;;;;;22.07;19.73;;;;;;;;;;728914;189;915917;-66
2022/06/04 06:18:33;;;;;;;27.83;21.97;;;;;;;;;;727342;191;615052;-67
2022/06/04 06:20:59;;;;;;;23.00;19.30;;;;;;;;;;728454;190;629466;-67
2022/06/04 06:23:25;;;;;;;20.50;18.40;;;;;;;;;;726946;191;915542;-66
2022/06/04 06:25:51;;;;;;;23.07;19.30;;;;;;;;;;731421;190;922165;-67
2022/06/04 06:28:16;;;;;;;20.13;17.30;;;;;;;;;;730811;191;622618;-66
2022/06/04 06:30:42;;;;;;;22.30;18.87;;;;;;;;;;733459;189;628486;-66
2022/06/04 06:33:08;;;;;;;21.70;19.20;;;;;;;;;;735317;189;630933;-68
2022/06/04 06:35:34;;;;;;;20.17;18.07;;;;;;;;;;733335;189;630516;-66
2022/06/04 06:38:00;;;;;;;19.70;17.67;;;;;;;;;;728368;191;723122;-66
2022/06/04 06:40:26;;;;;;;19.93;17.73;;;;;;;;;;736568;189;629802;-67
2022/06/04 06:42:51;;;;;;;21.53;19.30;;;;;;;;;;733905;189;614306;-67
2022/06/04 06:45:17;;;;;;;21.43;17.97;;;;;;;;;;729128;189;920413;-67
2022/06/04 06:47:44;;;;;;;24.53;18.83;;;;;;;;;;726656;189;919023;-67
2022/06/04 06:50:09;;;;;;;20.67;18.47;;;;;;;;;;733063;190;918037;-67
2022/06/04 06:52:35;;;;;;;21.30;18.90;;;;;;;;;;729561;190;918723;-67
2022/06/04 06:55:01;;;;;;;23.63;18.13;;;;;;;;;;729603;190;872776;-67
2022/06/04 06:57:27;;;;;;;21.23;17.67;;;;;;;;;;729527;191;919451;-67
2022/06/04 06:59:54;;;;;;;19.70;16.60;;;;;;;;;;733925;191;920942;-69
2022/06/04 07:02:18;;;;;;;21.12;18.08;;;;;;;;;;724375;190;919388;-67
2022/06/04 07:04:44;;;;;;;21.50;17.20;;;;;;;;;;721531;190;919042;-67
2022/06/04 07:07:10;;;;;;;19.63;17.00;;;;;;;;;;730723;191;918868;-67
2022/06/04 07:09:36;;;;;;;19.07;16.77;;;;;;;;;;725695;190;918731;-68
2022/06/04 07:12:02;;;;;;;21.60;17.90;;;;;;;;;;730560;190;912496;-67
2022/06/04 07:14:28;;;;;;;22.10;16.40;;;;;;;;;;732378;190;918574;-67
2022/06/04 07:16:53;;;;;;;20.57;18.10;;;;;;;;;;722978;190;919270;-68
2022/06/04 07:19:21;;;;;;;21.73;16.87;;;;;;;;;;730244;189;918385;-67
2022/06/04 07:21:46;;;;;;;18.40;16.43;;;;;;;;;;734475;190;919147;-67
2022/06/04 07:24:12;;;;;;;20.10;17.40;;;;;;;;;;739150;189;918217;-67
2022/06/04 07:26:37;;;;;;;19.43;17.00;;;;;;;;;;734551;189;919541;-67
2022/06/04 07:29:03;;;;;;;18.67;16.77;;;;;;;;;;726137;191;919382;-66
2022/06/04 07:31:29;;;;;;;18.93;16.80;;;;;;;;;;726892;190;918471;-67
2022/06/04 07:33:56;;;;;;;19.40;17.20;;;;;;;;;;727177;191;918758;-68
2022/06/04 07:36:21;;;;;;;22.40;18.90;;;;;;;;;;722962;191;919607;-68
2022/06/04 07:38:47;;;;;;;21.53;18.43;;;;;;;;;;732576;191;919370;-68
2022/06/04 07:41:22;;;;;;;21.20;18.90;;;;;;;;;;730487;189;916845;-69
2022/06/04 07:43:48;;;;;;;24.03;18.57;;;;;;;;;;732281;191;647018;-67
2022/06/04 07:46:13;;;;;;;23.57;19.20;;;;;;;;;;731770;191;627626;-67
2022/06/04 07:48:39;;;;;;;21.30;17.60;;;;;;;;;;736773;190;622385;-69
2022/06/04 07:51:05;;;;;;;22.30;19.13;;;;;;;;;;728055;189;849440;-70
2022/06/04 07:53:31;;;;;;;24.73;19.87;;;;;;;;;;734157;191;627139;-69
2022/06/04 07:55:57;;;;;;;25.30;22.60;;;;;;;;;;737504;187;652135;-69
2022/06/04 07:58:23;;;;;;;37.40;25.30;;;;;;;;;;727246;189;636800;-70
2022/06/04 08:00:53;;;;;;;33.80;25.03;;;;;;;;;;731381;189;630461;-70
2022/06/04 08:03:19;;;;;;;28.27;20.17;;;;;;;;;;731021;190;623960;-69
2022/06/04 08:05:45;;;;;;;21.60;19.00;;;;;;;;;;735746;189;754834;-69
2022/06/04 08:08:11;;;;;;;24.53;19.93;;;;;;;;;;737024;190;633846;-69
2022/06/04 08:10:37;;;;;;;22.10;18.80;;;;;;;;;;736648;189;675041;-70
2022/06/04 08:13:06;;;;;;;23.83;17.27;;;;;;;;;;736201;189;640613;-70
2022/06/04 08:15:29;;;;;;;27.80;19.23;;;;;;;;;;731047;191;626004;-69
2022/06/04 08:17:55;;;;;;;27.30;19.40;;;;;;;;;;732633;191;626297;-70
2022/06/04 08:20:21;;;;;;;20.83;18.30;;;;;;;;;;730484;190;649000;-69
2022/06/04 08:22:46;;;;;;;22.20;15.73;;;;;;;;;;736038;189;626704;-70
2022/06/04 08:25:13;;;;;;;19.10;16.10;;;;;;;;;;732232;189;633529;-70
2022/06/04 08:27:39;;;;;;;19.73;15.40;;;;;;;;;;731975;189;623279;-69
2022/06/04 08:30:06;;;;;;;19.13;16.53;;;;;;;;;;734321;190;634305;-72
2022/06/04 08:32:32;;;;;;;22.03;17.63;;;;;;;;;;729104;190;628653;-69
2022/06/04 08:34:58;;;;;;;20.57;17.47;;;;;;;;;;728335;189;918582;-70
2022/06/04 08:37:25;;;;;;;20.60;15.47;;;;;;;;;;735708;191;642902;-70
2022/06/04 08:39:52;;;;;;;22.10;16.13;;;;;;;;;;730453;189;918441;-69
2022/06/04 08:42:22;;;;;;;17.93;15.33;;;;;;;;;;733427;191;625393;-70
2022/06/04 08:44:47;;;;;;;19.37;16.50;;;;;;;;;;730122;190;627577;-71
2022/06/04 08:47:15;;;;;;;17.00;15.20;;;;;;;;;;740210;191;610042;-70
2022/06/04 08:49:41;;;;;;;14.67;13.00;;;;;;;;;;732269;191;625815;-72
2022/06/04 08:52:12;;;;;;;19.83;14.67;;;;;;;;;;732688;190;624538;-71
2022/06/04 08:59:45;;;;;;;17.53;15.40;;;;;;;;;;727581;189;637098;-70
2022/06/04 09:02:11;;;;;;;16.20;14.60;;;;;;;;;;726912;189;635283;-71
2022/06/04 09:04:44;;;;;;;18.63;14.30;;;;;;;;;;726435;190;622435;-70
2022/06/04 09:07:14;;;;;;;15.93;14.10;;;;;;;;;;732806;189;626333;-70
2022/06/04 09:09:55;;;;;;;18.50;14.77;;;;;;;;;;731874;190;620777;-70
2022/06/04 09:12:35;;;;;;;22.03;16.33;;;;;;;;;;737574;190;628702;-70
2022/06/04 09:15:04;;;;;;;19.73;16.43;;;;;;;;;;731822;189;643231;-70
2022/06/04 09:17:34;;;;;;;19.10;15.40;;;;;;;;;;735031;190;626528;-69
2022/06/04 09:19:59;;;;;;;17.67;10.97;;;;;;;;;;734577;190;623983;-69
2022/06/04 09:22:25;;;;;;;15.33;12.03;;;;;;;;;;736360;189;749311;-71
2022/06/04 09:24:51;;;;;;;16.00;11.60;;;;;;;;;;734541;189;637242;-70
2022/06/04 09:27:28;;;;;;;17.33;11.90;;;;;;;;;;729526;189;638788;-71
2022/06/04 09:29:57;;;;;;;19.17;12.03;;;;;;;;;;730448;188;624160;-70
2022/06/04 09:32:25;;;;;;;12.67;10.70;;;;;;;;;;733886;190;637765;-70
2022/06/04 09:34:51;;;;;;;19.07;11.90;;;;;;;;;;730718;190;642517;-71
2022/06/04 09:37:17;;;;;;;17.47;12.13;;;;;;;;;;730290;190;628799;-70
2022/06/04 09:39:43;;;;;;;16.67;12.70;;;;;;;;;;730920;190;615475;-69
2022/06/04 09:42:20;;;;;;;21.10;11.63;;;;;;;;;;737988;191;629138;-69
2022/06/04 09:44:50;;;;;;;15.57;11.87;;;;;;;;;;732234;190;653274;-69
2022/06/04 09:47:25;;;;;;;16.50;12.30;;;;;;;;;;732983;191;646930;-69
2022/06/04 09:49:54;;;;;;;14.73;12.17;;;;;;;;;;729936;189;629327;-70
2022/06/04 09:52:24;;;;;;;16.90;11.83;;;;;;;;;;730169;190;631202;-69
2022/06/04 09:54:53;;;;;;;16.10;12.37;;;;;;;;;;733388;191;639922;-70
2022/06/04 09:57:23;;;;;;;16.37;13.50;;;;;;;;;;729347;191;619182;-70
2022/06/04 09:59:53;;;;;;;18.93;10.77;;;;;;;;;;729790;191;621586;-70
2022/06/04 10:02:18;;;;;;;16.30;12.40;;;;;;;;;;734289;189;619060;-70
2022/06/04 10:04:45;;;;;;;20.70;13.93;;;;;;;;;;735385;187;632710;-70
2022/06/04 10:07:10;;;;;;;18.37;12.73;;;;;;;;;;733196;189;631147;-71
2022/06/04 10:12:08;;;;;;;15.30;11.77;;;;;;;;;;729699;190;695721;-70
2022/06/04 10:14:33;;;;;;;22.53;16.20;;;;;;;;;;745062;187;648149;-70
2022/06/04 10:16:59;;;;;;;17.33;13.27;;;;;;;;;;734022;190;621183;-70
2022/06/04 10:19:25;;;;;;;25.93;13.50;;;;;;;;;;732540;189;638704;-69
2022/06/04 10:21:56;;;;;;;18.33;12.70;;;;;;;;;;735291;190;638433;-70
2022/06/04 10:24:22;;;;;;;18.30;13.57;;;;;;;;;;733799;190;629729;-71
2022/06/04 10:26:54;;;;;;;15.00;12.70;;;;;;;;;;735544;189;633626;-70
2022/06/04 10:29:40;;;;;;;17.27;13.53;;;;;;;;;;731217;188;629331;-70
2022/06/04 10:32:24;;;;;;;16.33;12.53;;;;;;;;;;730494;189;642954;-72
2022/06/04 10:34:50;;;;;;;15.53;12.27;;;;;;;;;;733564;190;639953;-70
2022/06/04 10:37:16;;;;;;;16.47;11.00;;;;;;;;;;736529;189;619044;-71
2022/06/04 10:39:44;;;;;;;17.67;12.00;;;;;;;;;;730353;190;629714;-70
2022/06/04 10:42:13;;;;;;;15.10;13.50;;;;;;;;;;735069;190;627026;-70
2022/06/04 10:44:45;;;;;;;22.17;16.60;;;;;;;;;;731687;189;623735;-69
2022/06/04 10:47:21;;;;;;;24.20;15.43;;;;;;;;;;734009;190;623565;-70
2022/06/04 10:49:57;;;;;;;18.70;16.70;;;;;;;;;;732643;190;618579;-70
2022/06/04 10:52:23;;;;;;;19.33;16.40;;;;;;;;;;732512;189;633674;-69
2022/06/04 10:55:03;;;;;;;19.17;15.33;;;;;;;;;;732342;190;623941;-72
2022/06/04 10:57:30;;;;;;;21.00;15.40;;;;;;;;;;731551;189;636079;-70
2022/06/04 10:59:57;;;;;;;19.03;16.13;;;;;;;;;;730559;187;623106;-70
2022/06/04 11:02:24;;;;;;;21.70;14.57;;;;;;;;;;733124;190;615842;-71
2022/06/04 11:05:01;;;;;;;20.10;15.33;;;;;;;;;;731083;190;646981;-71
2022/06/04 11:07:34;;;;;;;20.00;14.43;;;;;;;;;;728821;191;715132;-70
2022/06/04 11:10:00;;;;;;;20.80;15.63;;;;;;;;;;730424;191;623285;-71
2022/06/04 11:12:32;;;;;;;16.60;14.77;;;;;;;;;;734692;190;624512;-71
2022/06/04 11:14:58;;;;;;;19.53;16.07;;;;;;;;;;737942;189;626801;-70
2022/06/04 11:17:24;;;;;;;22.97;17.67;;;;;;;;;;730960;191;622907;-71
2022/06/04 11:19:52;;;;;;;24.70;20.57;;;;;;;;;;729944;190;631257;-71
2022/06/04 11:22:17;;;;;;;24.83;21.30;;;;;;;;;;735834;189;630099;-70
2022/06/04 11:24:45;;;;;;;32.13;24.57;;;;;;;;;;732187;191;628514;-71
2022/06/04 11:27:12;;;;;;;32.23;26.00;;;;;;;;;;731390;189;642147;-70
2022/06/04 11:29:38;;;;;;;40.00;26.67;;;;;;;;;;731346;187;622572;-70
2022/06/04 11:32:04;;;;;;;40.57;26.47;;;;;;;;;;743230;187;622888;-70
2022/06/04 11:34:50;;;;;;;30.20;25.00;;;;;;;;;;733599;190;629070;-71
2022/06/04 11:37:19;;;;;;;28.20;24.00;;;;;;;;;;734824;189;697030;-69
2022/06/04 11:39:50;;;;;;;27.93;24.70;;;;;;;;;;734428;187;622072;-70
2022/06/04 11:42:18;;;;;;;31.60;22.90;;;;;;;;;;735079;190;625433;-70
2022/06/04 11:44:49;;;;;;;27.07;18.90;;;;;;;;;;735020;189;620937;-70
2022/06/04 11:47:18;;;;;;;29.60;20.53;;;;;;;;;;732270;190;625151;-70
2022/06/04 11:49:50;;;;;;;30.23;22.60;;;;;;;;;;733353;190;628883;-70
2022/06/04 11:52:21;;;;;;;24.83;21.57;;;;;;;;;;731984;190;623755;-70
2022/06/04 11:54:51;;;;;;;29.83;25.20;;;;;;;;;;737244;190;626095;-70
2022/06/04 11:57:19;;;;;;;28.57;25.67;;;;;;;;;;742752;190;626280;-69
2022/06/04 11:59:51;;;;;;;27.23;24.23;;;;;;;;;;730097;190;630585;-69
2022/06/04 12:02:20;;;;;;;27.00;24.10;;;;;;;;;;733433;190;631779;-71
2022/06/04 12:04:47;;;;;;;27.15;23.85;;;;;;;;;;731597;190;626831;-69
2022/06/04 12:07:12;;;;;;;32.70;24.20;;;;;;;;;;730798;190;623460;-70
2022/06/04 12:09:38;;;;;;;25.73;23.10;;;;;;;;;;730732;189;630473;-71
2022/06/04 12:12:04;;;;;;;28.40;23.50;;;;;;;;;;727480;189;897972;-70
2022/06/04 12:14:32;;;;;;;27.13;22.00;;;;;;;;;;733761;189;627368;-69
2022/06/04 12:17:14;;;;;;;32.37;26.30;;;;;;;;;;730875;191;625908;-71
2022/06/04 12:24:48;;;;;;;28.60;24.03;;;;;;;;;;731329;191;622994;-69
2022/06/04 12:27:24;;;;;;;30.63;26.83;;;;;;;;;;733011;191;616663;-70
2022/06/04 12:29:50;;;;;;;28.67;25.67;;;;;;;;;;732913;191;635816;-68
2022/06/04 12:32:21;;;;;;;29.80;25.13;;;;;;;;;;732266;191;634443;-70
2022/06/04 12:34:46;;;;;;;33.33;23.10;;;;;;;;;;733749;187;652200;-69
2022/06/04 12:37:18;;;;;;;25.27;22.77;;;;;;;;;;735918;189;622547;-69
2022/06/04 12:39:43;;;;;;;29.67;24.20;;;;;;;;;;739658;191;629054;-68
2022/06/04 12:42:10;;;;;;;27.33;23.40;;;;;;;;;;732974;191;628863;-69
2022/06/04 12:44:36;;;;;;;22.90;18.77;;;;;;;;;;733733;190;636745;-67
2022/06/04 12:47:07;;;;;;;25.20;22.50;;;;;;;;;;734340;190;638091;-69
2022/06/04 12:49:34;;;;;;;32.63;23.10;;;;;;;;;;733253;190;633913;-69
2022/06/04 12:52:02;;;;;;;31.93;28.37;;;;;;;;;;734006;189;627790;-70
2022/06/04 12:54:28;;;;;;;39.27;35.23;;;;;;;;;;730160;189;627001;-70
2022/06/04 12:56:54;;;;;;;28.73;23.67;;;;;;;;;;735859;189;627056;-70
2022/06/04 12:59:23;;;;;;;31.93;26.97;;;;;;;;;;730215;189;680030;-71
2022/06/04 13:01:49;;;;;;;27.77;23.90;;;;;;;;;;734223;190;622262;-69
2022/06/04 13:04:19;;;;;;;71.73;51.90;;;;;;;;;;733515;190;635917;-68
2022/06/04 13:06:47;;;;;;;30.50;24.63;;;;;;;;;;739969;186;624690;-71
2022/06/04 13:09:12;;;;;;;30.50;25.73;;;;;;;;;;730258;189;635974;-71
2022/06/04 13:11:38;;;;;;;27.03;24.17;;;;;;;;;;730852;190;625926;-70
2022/06/04 13:14:08;;;;;;;25.57;22.40;;;;;;;;;;735589;190;641798;-70
2022/06/04 13:16:34;;;;;;;20.70;18.57;;;;;;;;;;728495;190;637288;-71
2022/06/04 13:19:01;;;;;;;21.93;19.50;;;;;;;;;;729653;190;647131;-70
2022/06/04 13:21:27;;;;;;;22.37;19.27;;;;;;;;;;731387;189;622962;-68
2022/06/04 13:23:56;;;;;;;24.73;19.27;;;;;;;;;;734695;190;659092;-69
2022/06/04 13:26:30;;;;;;;26.70;20.50;;;;;;;;;;731524;190;631233;-73
2022/06/04 13:28:54;;;;;;;24.90;20.20;;;;;;;;;;730097;190;624778;-70
2022/06/04 13:31:22;;;;;;;25.40;20.03;;;;;;;;;;732245;189;658275;-69
2022/06/04 13:33:48;;;;;;;21.13;18.67;;;;;;;;;;734087;189;653308;-71
2022/06/04 13:36:14;;;;;;;21.57;19.07;;;;;;;;;;729854;187;1184583;-70
2022/06/04 13:38:41;;;;;;;21.93;18.17;;;;;;;;;;728780;189;623796;-68
2022/06/04 13:41:07;;;;;;;25.93;21.23;;;;;;;;;;733560;191;628720;-70
2022/06/04 13:43:37;;;;;;;21.00;16.60;;;;;;;;;;729483;190;629734;-70
2022/06/04 13:46:03;;;;;;;19.90;17.80;;;;;;;;;;731417;189;627502;-69
2022/06/04 13:48:30;;;;;;;24.03;17.90;;;;;;;;;;730702;191;629823;-70
2022/06/04 13:50:55;;;;;;;19.80;16.20;;;;;;;;;;736131;191;629167;-70
2022/06/04 13:53:21;;;;;;;19.67;17.07;;;;;;;;;;728866;189;919806;-71
2022/06/04 13:55:47;;;;;;;21.83;18.63;;;;;;;;;;735813;189;636373;-70
2022/06/04 13:58:14;;;;;;;21.73;16.30;;;;;;;;;;743432;189;633583;-70
2022/06/04 14:00:40;;;;;;;17.48;15.57;;;;;;;;;;732106;189;919191;-70
2022/06/04 14:03:09;;;;;;;14.10;12.53;;;;;;;;;;728330;190;918941;-70
2022/06/04 14:08:08;;;;;;;14.40;13.00;;;;;;;;;;733533;190;632154;-70
2022/06/04 14:10:34;;;;;;;16.60;13.83;;;;;;;;;;731946;190;629820;-72
2022/06/04 14:13:16;;;;;;;15.03;11.50;;;;;;;;;;728078;189;627535;-71
2022/06/04 14:15:47;;;;;;;17.00;12.93;;;;;;;;;;728723;189;619208;-71
2022/06/04 14:18:27;;;;;;;17.63;13.77;;;;;;;;;;732286;190;635986;-71
2022/06/04 14:21:09;;;;;;;13.90;12.60;;;;;;;;;;729348;190;634955;-72
2022/06/04 14:23:44;;;;;;;16.27;14.67;;;;;;;;;;731651;190;639980;-69
2022/06/04 14:26:26;;;;;;;15.07;13.70;;;;;;;;;;725787;191;616885;-72
2022/06/04 14:28:52;;;;;;;14.70;12.93;;;;;;;;;;731567;191;619486;-71
2022/06/04 14:31:18;;;;;;;13.63;12.23;;;;;;;;;;729425;191;632839;-68